sensor_id;sensor_type;location;lat;lon;timestamp;pressure;altitude;pressure_sealevel;temperature;humidity
15050;BME280;7622;42.724;23.250;2023-04-02T00:01:24;93799.28;;;7.71;100.00
15050;BME280;7622;42.724;23.250;2023-04-02T00:04:15;93805.41;;;7.70;100.00
15050;BME280;7622;42.724;23.250;2023-04-02T00:06:47;93789.50;;;7.74;100.00
15050;BME280;7622;42.724;23.250;2023-04-02T00:09:30;93793.59;;;7.85;100.00
15050;BME280;7622;42.724;23.250;2023-04-02T00:12:11;93799.81;;;7.92;100.00
15050;BME280;7622;42.724;23.250;2023-04-02T00:14:46;93813.56;;;7.93;100.00
15050;BME280;7622;42.724;23.250;2023-04-02T00:17:13;93807.94;;;7.97;100.00
15050;BME280;7622;42.724;23.250;2023-04-02T00:19:45;93818.63;;;8.02;100.00
15050;BME280;7622;42.724;23.250;2023-04-02T00:22:20;93815.03;;;7.95;100.00
15050;BME280;7622;42.724;23.250;2023-04-02T00:24:50;93807.56;;;7.92;100.00
15050;BME280;7622;42.724;23.250;2023-04-02T00:27:19;93797.59;;;7.97;100.00
15050;BME280;7622;42.724;23.250;2023-04-02T00:29:47;93800.91;;;7.89;100.00
15050;BME280;7622;42.724;23.250;2023-04-02T00:32:25;93793.38;;;7.78;100.00
15050;BME280;7622;42.724;23.250;2023-04-02T00:34:53;93791.78;;;7.95;100.00
15050;BME280;7622;42.724;23.250;2023-04-02T00:37:23;93791.38;;;7.90;100.00
15050;BME280;7622;42.724;23.250;2023-04-02T00:39:57;93784.31;;;7.92;100.00
15050;BME280;7622;42.724;23.250;2023-04-02T00:42:29;93783.19;;;7.95;100.00
15050;BME280;7622;42.724;23.250;2023-04-02T00:44:57;93798.25;;;7.99;100.00
15050;BME280;7622;42.724;23.250;2023-04-02T00:47:26;93787.31;;;8.05;100.00
15050;BME280;7622;42.724;23.250;2023-04-02T00:49:58;93757.19;;;7.78;100.00
15050;BME280;7622;42.724;23.250;2023-04-02T00:52:28;93793.44;;;8.04;100.00
15050;BME280;7622;42.724;23.250;2023-04-02T00:55:02;93791.22;;;8.09;100.00
15050;BME280;7622;42.724;23.250;2023-04-02T00:57:32;93795.47;;;7.93;100.00
15050;BME280;7622;42.724;23.250;2023-04-02T01:00:01;93786.75;;;7.94;100.00
15050;BME280;7622;42.724;23.250;2023-04-02T01:02:33;93794.78;;;7.90;100.00
15050;BME280;7622;42.724;23.250;2023-04-02T01:05:20;93799.34;;;7.97;100.00
15050;BME280;7622;42.724;23.250;2023-04-02T01:07:58;93799.44;;;8.05;100.00
15050;BME280;7622;42.724;23.250;2023-04-02T01:10:38;93794.19;;;8.14;100.00
15050;BME280;7622;42.724;23.250;2023-04-02T01:13:19;93805.41;;;8.05;100.00
15050;BME280;7622;42.724;23.250;2023-04-02T01:15:52;93798.72;;;7.95;100.00
15050;BME280;7622;42.724;23.250;2023-04-02T01:18:29;93805.50;;;7.60;100.00
15050;BME280;7622;42.724;23.250;2023-04-02T01:21:10;93799.06;;;7.46;100.00
15050;BME280;7622;42.724;23.250;2023-04-02T01:23:48;93814.38;;;7.30;100.00
15050;BME280;7622;42.724;23.250;2023-04-02T01:26:26;93800.63;;;7.12;100.00
15050;BME280;7622;42.724;23.250;2023-04-02T01:29:01;93799.47;;;6.97;100.00
15050;BME280;7622;42.724;23.250;2023-04-02T01:31:29;93804.81;;;7.13;100.00
15050;BME280;7622;42.724;23.250;2023-04-02T01:33:57;93807.81;;;7.18;100.00
15050;BME280;7622;42.724;23.250;2023-04-02T01:36:29;93809.34;;;7.11;100.00
15050;BME280;7622;42.724;23.250;2023-04-02T01:39:04;93813.72;;;7.01;100.00
15050;BME280;7622;42.724;23.250;2023-04-02T01:41:42;93815.34;;;7.02;100.00
15050;BME280;7622;42.724;23.250;2023-04-02T01:44:16;93812.97;;;6.91;100.00
15050;BME280;7622;42.724;23.250;2023-04-02T01:46:47;93817.88;;;6.84;100.00
15050;BME280;7622;42.724;23.250;2023-04-02T01:49:17;93822.88;;;6.86;100.00
15050;BME280;7622;42.724;23.250;2023-04-02T01:51:45;93808.50;;;6.83;100.00
15050;BME280;7622;42.724;23.250;2023-04-02T01:54:14;93817.75;;;6.76;100.00
15050;BME280;7622;42.724;23.250;2023-04-02T01:56:42;93809.09;;;6.67;100.00
15050;BME280;7622;42.724;23.250;2023-04-02T01:59:10;93819.44;;;6.58;100.00
15050;BME280;7622;42.724;23.250;2023-04-02T02:01:42;93775.69;;;6.19;100.00
15050;BME280;7622;42.724;23.250;2023-04-02T02:04:11;93820.44;;;6.38;100.00
15050;BME280;7622;42.724;23.250;2023-04-02T02:06:39;93789.66;;;6.17;100.00
15050;BME280;7622;42.724;23.250;2023-04-02T02:09:07;93807.47;;;6.20;100.00
15050;BME280;7622;42.724;23.250;2023-04-02T02:11:38;93804.75;;;6.21;100.00
15050;BME280;7622;42.724;23.250;2023-04-02T02:14:08;93821.28;;;6.28;100.00
15050;BME280;7622;42.724;23.250;2023-04-02T02:16:40;93822.09;;;6.19;100.00
15050;BME280;7622;42.724;23.250;2023-04-02T02:19:17;93811.94;;;6.18;100.00
15050;BME280;7622;42.724;23.250;2023-04-02T02:21:48;93812.75;;;6.09;100.00
15050;BME280;7622;42.724;23.250;2023-04-02T02:24:25;93811.97;;;6.08;100.00
15050;BME280;7622;42.724;23.250;2023-04-02T02:27:02;93814.25;;;6.02;100.00
15050;BME280;7622;42.724;23.250;2023-04-02T02:29:30;93815.31;;;6.09;100.00
15050;BME280;7622;42.724;23.250;2023-04-02T02:32:02;93808.03;;;5.95;100.00
15050;BME280;7622;42.724;23.250;2023-04-02T02:34:34;93809.38;;;5.89;100.00
15050;BME280;7622;42.724;23.250;2023-04-02T02:37:05;93812.63;;;6.01;100.00
15050;BME280;7622;42.724;23.250;2023-04-02T02:39:38;93803.41;;;6.08;100.00
15050;BME280;7622;42.724;23.250;2023-04-02T02:42:10;93819.41;;;6.21;100.00
15050;BME280;7622;42.724;23.250;2023-04-02T02:44:42;93813.56;;;6.19;100.00
15050;BME280;7622;42.724;23.250;2023-04-02T02:47:13;93820.78;;;6.15;100.00
15050;BME280;7622;42.724;23.250;2023-04-02T02:49:42;93804.72;;;6.31;100.00
15050;BME280;7622;42.724;23.250;2023-04-02T02:52:15;93805.22;;;6.44;100.00
15050;BME280;7622;42.724;23.250;2023-04-02T02:54:45;93803.06;;;6.40;100.00
15050;BME280;7622;42.724;23.250;2023-04-02T02:57:14;93803.06;;;6.30;100.00
15050;BME280;7622;42.724;23.250;2023-04-02T02:59:44;93793.84;;;6.37;100.00
15050;BME280;7622;42.724;23.250;2023-04-02T03:02:13;93805.78;;;6.38;100.00
15050;BME280;7622;42.724;23.250;2023-04-02T03:04:40;93800.91;;;6.35;100.00
15050;BME280;7622;42.724;23.250;2023-04-02T03:07:11;93807.16;;;6.42;100.00
15050;BME280;7622;42.724;23.250;2023-04-02T03:09:45;93808.66;;;6.16;100.00
15050;BME280;7622;42.724;23.250;2023-04-02T03:12:27;93801.50;;;6.10;100.00
15050;BME280;7622;42.724;23.250;2023-04-02T03:14:59;93806.50;;;6.02;100.00
15050;BME280;7622;42.724;23.250;2023-04-02T03:17:32;93816.03;;;5.91;100.00
15050;BME280;7622;42.724;23.250;2023-04-02T03:20:03;93809.63;;;5.86;100.00
15050;BME280;7622;42.724;23.250;2023-04-02T03:22:34;93820.50;;;5.99;100.00
15050;BME280;7622;42.724;23.250;2023-04-02T03:25:12;93808.00;;;5.85;100.00
15050;BME280;7622;42.724;23.250;2023-04-02T03:27:43;93818.44;;;5.83;100.00
15050;BME280;7622;42.724;23.250;2023-04-02T03:30:33;93813.28;;;5.83;100.00
15050;BME280;7622;42.724;23.250;2023-04-02T03:33:07;93810.31;;;5.78;100.00
15050;BME280;7622;42.724;23.250;2023-04-02T03:35:38;93812.34;;;5.84;100.00
15050;BME280;7622;42.724;23.250;2023-04-02T03:38:12;93817.38;;;5.96;100.00
15050;BME280;7622;42.724;23.250;2023-04-02T03:40:42;93780.06;;;5.71;100.00
15050;BME280;7622;42.724;23.250;2023-04-02T03:43:17;93817.66;;;5.92;100.00
15050;BME280;7622;42.724;23.250;2023-04-02T03:45:48;93824.56;;;6.02;100.00
15050;BME280;7622;42.724;23.250;2023-04-02T03:48:23;93816.97;;;5.90;100.00
15050;BME280;7622;42.724;23.250;2023-04-02T03:50:56;93823.22;;;6.07;100.00
15050;BME280;7622;42.724;23.250;2023-04-02T03:53:27;93788.75;;;5.79;100.00
15050;BME280;7622;42.724;23.250;2023-04-02T03:55:56;93782.50;;;5.63;100.00
15050;BME280;7622;42.724;23.250;2023-04-02T03:58:26;93820.88;;;5.66;100.00
15050;BME280;7622;42.724;23.250;2023-04-02T04:00:58;93820.22;;;5.73;100.00
15050;BME280;7622;42.724;23.250;2023-04-02T04:03:31;93815.19;;;5.72;100.00
15050;BME280;7622;42.724;23.250;2023-04-02T04:06:05;93826.41;;;5.61;100.00
15050;BME280;7622;42.724;23.250;2023-04-02T04:08:38;93826.44;;;5.71;100.00
15050;BME280;7622;42.724;23.250;2023-04-02T04:11:09;93831.28;;;5.54;100.00
15050;BME280;7622;42.724;23.250;2023-04-02T04:13:43;93837.13;;;5.57;100.00
15050;BME280;7622;42.724;23.250;2023-04-02T04:16:13;93838.59;;;5.40;100.00
15050;BME280;7622;42.724;23.250;2023-04-02T04:18:48;93838.63;;;5.59;100.00
15050;BME280;7622;42.724;23.250;2023-04-02T04:21:19;93840.13;;;5.52;100.00
15050;BME280;7622;42.724;23.250;2023-04-02T04:23:54;93757.28;;;5.18;100.00
15050;BME280;7622;42.724;23.250;2023-04-02T04:26:25;93844.00;;;5.46;100.00
15050;BME280;7622;42.724;23.250;2023-04-02T04:28:59;93844.16;;;5.35;100.00
15050;BME280;7622;42.724;23.250;2023-04-02T04:31:33;93842.91;;;5.30;100.00
15050;BME280;7622;42.724;23.250;2023-04-02T04:34:09;93845.22;;;5.23;100.00
15050;BME280;7622;42.724;23.250;2023-04-02T04:36:41;93847.13;;;5.31;100.00
15050;BME280;7622;42.724;23.250;2023-04-02T04:39:15;93852.16;;;5.32;100.00
15050;BME280;7622;42.724;23.250;2023-04-02T04:41:47;93855.94;;;5.38;100.00
15050;BME280;7622;42.724;23.250;2023-04-02T04:44:17;93828.88;;;5.53;100.00
15050;BME280;7622;42.724;23.250;2023-04-02T04:46:50;93843.28;;;6.04;100.00
15050;BME280;7622;42.724;23.250;2023-04-02T04:49:23;93840.69;;;6.42;100.00
15050;BME280;7622;42.724;23.250;2023-04-02T04:51:53;93842.56;;;6.87;100.00
15050;BME280;7622;42.724;23.250;2023-04-02T04:54:24;93830.00;;;7.11;100.00
15050;BME280;7622;42.724;23.250;2023-04-02T04:56:54;93847.59;;;7.70;100.00
15050;BME280;7622;42.724;23.250;2023-04-02T04:59:25;93848.41;;;8.06;100.00
15050;BME280;7622;42.724;23.250;2023-04-02T05:01:59;93851.06;;;8.50;100.00
15050;BME280;7622;42.724;23.250;2023-04-02T05:04:33;93861.22;;;8.69;100.00
15050;BME280;7622;42.724;23.250;2023-04-02T05:07:04;93851.38;;;8.73;100.00
15050;BME280;7622;42.724;23.250;2023-04-02T05:09:36;93853.13;;;8.64;100.00
15050;BME280;7622;42.724;23.250;2023-04-02T05:12:13;93851.88;;;9.02;100.00
15050;BME280;7622;42.724;23.250;2023-04-02T05:14:48;93854.34;;;9.12;100.00
15050;BME280;7622;42.724;23.250;2023-04-02T05:17:20;93855.03;;;9.22;100.00
15050;BME280;7622;42.724;23.250;2023-04-02T05:19:54;93850.75;;;10.05;100.00
15050;BME280;7622;42.724;23.250;2023-04-02T05:22:28;93862.59;;;10.07;100.00
15050;BME280;7622;42.724;23.250;2023-04-02T05:25:08;93792.84;;;9.96;100.00
15050;BME280;7622;42.724;23.250;2023-04-02T05:27:43;93861.16;;;10.86;100.00
15050;BME280;7622;42.724;23.250;2023-04-02T05:33:02;93864.25;;;11.53;100.00
15050;BME280;7622;42.724;23.250;2023-04-02T05:35:35;93855.47;;;12.61;97.72
15050;BME280;7622;42.724;23.250;2023-04-02T05:38:07;93868.13;;;13.39;79.86
15050;BME280;7622;42.724;23.250;2023-04-02T05:40:37;93867.22;;;12.94;80.07
15050;BME280;7622;42.724;23.250;2023-04-02T05:43:08;93866.94;;;13.27;78.26
15050;BME280;7622;42.724;23.250;2023-04-02T05:45:36;93878.34;;;13.70;74.34
15050;BME280;7622;42.724;23.250;2023-04-02T05:48:13;93885.38;;;14.20;74.61
15050;BME280;7622;42.724;23.250;2023-04-02T05:50:47;93895.31;;;14.10;69.42
15050;BME280;7622;42.724;23.250;2023-04-02T05:53:19;93878.63;;;13.90;67.09
15050;BME280;7622;42.724;23.250;2023-04-02T05:55:52;93892.47;;;13.31;75.27
15050;BME280;7622;42.724;23.250;2023-04-02T05:58:26;93887.09;;;12.95;84.06
15050;BME280;7622;42.724;23.250;2023-04-02T06:01:14;93893.22;;;13.40;87.97
15050;BME280;7622;42.724;23.250;2023-04-02T06:03:49;93877.72;;;13.24;80.41
15050;BME280;7622;42.724;23.250;2023-04-02T06:06:24;93887.81;;;13.27;83.74
15050;BME280;7622;42.724;23.250;2023-04-02T06:08:56;93894.09;;;13.76;81.28
15050;BME280;7622;42.724;23.250;2023-04-02T06:11:27;93898.56;;;13.97;76.23
15050;BME280;7622;42.724;23.250;2023-04-02T06:13:55;93821.94;;;14.26;73.23
15050;BME280;7622;42.724;23.250;2023-04-02T06:16:27;93892.97;;;14.72;69.04
15050;BME280;7622;42.724;23.250;2023-04-02T06:18:55;93893.41;;;14.04;79.00
15050;BME280;7622;42.724;23.250;2023-04-02T06:21:25;93886.53;;;14.53;72.24
15050;BME280;7622;42.724;23.250;2023-04-02T06:23:54;93889.59;;;15.00;69.68
15050;BME280;7622;42.724;23.250;2023-04-02T06:26:25;93889.38;;;15.57;65.93
15050;BME280;7622;42.724;23.250;2023-04-02T06:28:58;93888.53;;;15.84;64.86
15050;BME280;7622;42.724;23.250;2023-04-02T06:31:39;93893.03;;;15.90;61.15
15050;BME280;7622;42.724;23.250;2023-04-02T06:34:14;93894.88;;;16.03;60.57
15050;BME280;7622;42.724;23.250;2023-04-02T06:36:43;93887.75;;;16.38;60.58
15050;BME280;7622;42.724;23.250;2023-04-02T06:39:17;93888.22;;;16.61;59.71
15050;BME280;7622;42.724;23.250;2023-04-02T06:41:45;93875.34;;;17.19;57.07
15050;BME280;7622;42.724;23.250;2023-04-02T06:44:15;93861.38;;;17.38;56.64
15050;BME280;7622;42.724;23.250;2023-04-02T06:46:46;93885.22;;;17.69;55.80
15050;BME280;7622;42.724;23.250;2023-04-02T06:49:17;93886.84;;;18.98;54.04
15050;BME280;7622;42.724;23.250;2023-04-02T06:51:47;93901.22;;;19.26;51.34
15050;BME280;7622;42.724;23.250;2023-04-02T06:54:17;93891.34;;;18.91;51.06
15050;BME280;7622;42.724;23.250;2023-04-02T06:56:46;93900.19;;;18.71;51.34
15050;BME280;7622;42.724;23.250;2023-04-02T06:59:13;93902.94;;;18.45;51.45
15050;BME280;7622;42.724;23.250;2023-04-02T07:01:43;93911.50;;;18.72;50.73
15050;BME280;7622;42.724;23.250;2023-04-02T07:04:12;93901.72;;;19.10;50.01
15050;BME280;7622;42.724;23.250;2023-04-02T07:06:39;93902.63;;;19.54;48.42
15050;BME280;7622;42.724;23.250;2023-04-02T07:09:07;93910.97;;;18.57;49.84
15050;BME280;7622;42.724;23.250;2023-04-02T07:11:34;93912.66;;;18.38;50.94
15050;BME280;7622;42.724;23.250;2023-04-02T07:14:01;93916.41;;;18.10;51.67
15050;BME280;7622;42.724;23.250;2023-04-02T07:16:29;93909.50;;;18.67;50.54
15050;BME280;7622;42.724;23.250;2023-04-02T07:18:57;93910.88;;;17.67;51.65
15050;BME280;7622;42.724;23.250;2023-04-02T07:21:24;93921.34;;;17.74;52.24
15050;BME280;7622;42.724;23.250;2023-04-02T07:23:51;93919.22;;;18.16;50.10
15050;BME280;7622;42.724;23.250;2023-04-02T07:26:21;93919.56;;;18.26;49.77
15050;BME280;7622;42.724;23.250;2023-04-02T07:28:50;93917.91;;;18.44;49.10
15050;BME280;7622;42.724;23.250;2023-04-02T07:31:18;93925.22;;;18.36;49.33
15050;BME280;7622;42.724;23.250;2023-04-02T07:33:45;93913.22;;;18.91;48.84
15050;BME280;7622;42.724;23.250;2023-04-02T07:36:14;93888.81;;;19.02;48.10
15050;BME280;7622;42.724;23.250;2023-04-02T07:38:41;93922.28;;;18.64;48.47
15050;BME280;7622;42.724;23.250;2023-04-02T07:41:08;93926.31;;;18.15;48.38
15050;BME280;7622;42.724;23.250;2023-04-02T07:43:37;93930.47;;;18.36;48.16
15050;BME280;7622;42.724;23.250;2023-04-02T07:46:05;93926.63;;;18.83;47.50
15050;BME280;7622;42.724;23.250;2023-04-02T07:48:32;93932.66;;;18.90;47.31
15050;BME280;7622;42.724;23.250;2023-04-02T07:50:59;93942.56;;;18.50;47.88
15050;BME280;7622;42.724;23.250;2023-04-02T07:53:29;93934.28;;;17.76;49.75
15050;BME280;7622;42.724;23.250;2023-04-02T07:55:57;93931.47;;;17.31;50.17
15050;BME280;7622;42.724;23.250;2023-04-02T07:58:25;93931.06;;;17.08;51.62
15050;BME280;7622;42.724;23.250;2023-04-02T08:00:56;93935.50;;;17.14;51.51
15050;BME280;7622;42.724;23.250;2023-04-02T08:03:25;93937.53;;;17.18;50.44
15050;BME280;7622;42.724;23.250;2023-04-02T08:05:53;93945.72;;;16.69;52.82
15050;BME280;7622;42.724;23.250;2023-04-02T08:08:21;93939.31;;;16.91;53.42
15050;BME280;7622;42.724;23.250;2023-04-02T08:10:48;93941.31;;;16.22;53.63
15050;BME280;7622;42.724;23.250;2023-04-02T08:13:16;93938.53;;;16.37;52.75
15050;BME280;7622;42.724;23.250;2023-04-02T08:15:43;93940.94;;;16.92;52.08
15050;BME280;7622;42.724;23.250;2023-04-02T08:18:11;93940.56;;;17.68;50.75
15050;BME280;7622;42.724;23.250;2023-04-02T08:20:38;93940.72;;;17.93;49.67
15050;BME280;7622;42.724;23.250;2023-04-02T08:23:11;93945.94;;;18.64;49.64
15050;BME280;7622;42.724;23.250;2023-04-02T08:25:39;93949.66;;;18.94;48.84
15050;BME280;7622;42.724;23.250;2023-04-02T08:28:06;93943.66;;;19.37;48.06
15050;BME280;7622;42.724;23.250;2023-04-02T08:30:33;93945.22;;;19.44;47.70
15050;BME280;7622;42.724;23.250;2023-04-02T08:33:00;93948.19;;;19.79;46.47
15050;BME280;7622;42.724;23.250;2023-04-02T08:35:28;93934.63;;;20.37;45.90
15050;BME280;7622;42.724;23.250;2023-04-02T08:37:55;93946.34;;;20.41;45.37
15050;BME280;7622;42.724;23.250;2023-04-02T08:40:24;93946.78;;;20.56;45.12
15050;BME280;7622;42.724;23.250;2023-04-02T08:43:11;93949.56;;;20.25;45.97
15050;BME280;7622;42.724;23.250;2023-04-02T08:45:49;93948.41;;;20.39;45.64
15050;BME280;7622;42.724;23.250;2023-04-02T08:48:20;93947.03;;;21.14;43.71
15050;BME280;7622;42.724;23.250;2023-04-02T08:50:49;93946.66;;;21.52;43.76
15050;BME280;7622;42.724;23.250;2023-04-02T08:53:18;93946.34;;;20.04;44.40
15050;BME280;7622;42.724;23.250;2023-04-02T08:55:53;93954.59;;;19.40;45.20
15050;BME280;7622;42.724;23.250;2023-04-02T08:58:36;93954.56;;;18.84;45.98
15050;BME280;7622;42.724;23.250;2023-04-02T09:01:06;93954.16;;;18.29;47.86
15050;BME280;7622;42.724;23.250;2023-04-02T09:03:40;93950.09;;;18.33;47.98
15050;BME280;7622;42.724;23.250;2023-04-02T09:06:12;93953.38;;;18.22;47.63
15050;BME280;7622;42.724;23.250;2023-04-02T09:08:42;93938.28;;;17.91;47.99
15050;BME280;7622;42.724;23.250;2023-04-02T09:11:14;93954.91;;;17.65;48.57
15050;BME280;7622;42.724;23.250;2023-04-02T09:13:45;93943.97;;;17.29;49.62
15050;BME280;7622;42.724;23.250;2023-04-02T09:16:15;93948.81;;;16.86;50.17
15050;BME280;7622;42.724;23.250;2023-04-02T09:18:43;93944.56;;;16.91;50.10
15050;BME280;7622;42.724;23.250;2023-04-02T09:21:26;93953.47;;;17.17;50.23
15050;BME280;7622;42.724;23.250;2023-04-02T09:23:54;93956.50;;;17.20;50.57
15050;BME280;7622;42.724;23.250;2023-04-02T09:26:23;93954.84;;;16.73;50.23
15050;BME280;7622;42.724;23.250;2023-04-02T09:28:54;93961.28;;;16.71;50.98
15050;BME280;7622;42.724;23.250;2023-04-02T09:31:29;93950.34;;;16.67;51.03
15050;BME280;7622;42.724;23.250;2023-04-02T09:33:58;93943.41;;;16.53;50.68
15050;BME280;7622;42.724;23.250;2023-04-02T09:36:32;93944.19;;;17.34;49.32
15050;BME280;7622;42.724;23.250;2023-04-02T09:39:03;93948.84;;;17.45;49.10
15050;BME280;7622;42.724;23.250;2023-04-02T09:41:33;93948.84;;;17.45;48.69
15050;BME280;7622;42.724;23.250;2023-04-02T09:44:18;93944.78;;;17.36;49.48
15050;BME280;7622;42.724;23.250;2023-04-02T09:46:48;93944.41;;;17.13;50.42
15050;BME280;7622;42.724;23.250;2023-04-02T09:49:16;93940.34;;;17.04;50.88
15050;BME280;7622;42.724;23.250;2023-04-02T09:51:44;93933.91;;;17.19;49.83
15050;BME280;7622;42.724;23.250;2023-04-02T09:54:15;93930.66;;;17.24;49.53
15050;BME280;7622;42.724;23.250;2023-04-02T09:56:59;93927.22;;;17.10;49.02
15050;BME280;7622;42.724;23.250;2023-04-02T09:59:26;93865.00;;;16.51;49.51
15050;BME280;7622;42.724;23.250;2023-04-02T10:01:58;93931.56;;;16.57;49.76
15050;BME280;7622;42.724;23.250;2023-04-02T10:04:36;93924.50;;;16.03;51.59
15050;BME280;7622;42.724;23.250;2023-04-02T10:07:30;93918.88;;;16.13;51.13
15050;BME280;7622;42.724;23.250;2023-04-02T10:10:00;93922.63;;;15.97;51.13
15050;BME280;7622;42.724;23.250;2023-04-02T10:12:39;93920.75;;;16.26;52.16
15050;BME280;7622;42.724;23.250;2023-04-02T10:15:13;93910.72;;;16.36;51.40
15050;BME280;7622;42.724;23.250;2023-04-02T10:17:42;93911.09;;;17.07;49.57
15050;BME280;7622;42.724;23.250;2023-04-02T10:20:16;93912.66;;;17.74;48.30
15050;BME280;7622;42.724;23.250;2023-04-02T10:22:46;93904.13;;;17.91;47.71
15050;BME280;7622;42.724;23.250;2023-04-02T10:25:14;93904.41;;;17.30;49.40
15050;BME280;7622;42.724;23.250;2023-04-02T10:27:47;93907.22;;;17.36;49.34
15050;BME280;7622;42.724;23.250;2023-04-02T10:30:20;93915.53;;;17.26;49.04
15050;BME280;7622;42.724;23.250;2023-04-02T10:32:53;93911.69;;;17.42;49.16
15050;BME280;7622;42.724;23.250;2023-04-02T10:35:33;93912.47;;;17.29;48.83
15050;BME280;7622;42.724;23.250;2023-04-02T10:38:21;93918.53;;;17.16;48.65
15050;BME280;7622;42.724;23.250;2023-04-02T10:40:57;93911.28;;;17.12;49.21
15050;BME280;7622;42.724;23.250;2023-04-02T10:43:45;93908.66;;;17.05;49.59
15050;BME280;7622;42.724;23.250;2023-04-02T10:46:21;93905.22;;;17.31;48.87
15050;BME280;7622;42.724;23.250;2023-04-02T10:48:56;93915.44;;;18.56;47.82
15050;BME280;7622;42.724;23.250;2023-04-02T10:51:34;93898.88;;;18.87;46.72
15050;BME280;7622;42.724;23.250;2023-04-02T10:54:17;93904.63;;;18.71;46.73
15050;BME280;7622;42.724;23.250;2023-04-02T10:56:48;93901.81;;;18.97;45.58
15050;BME280;7622;42.724;23.250;2023-04-02T10:59:21;93901.84;;;19.72;45.05
15050;BME280;7622;42.724;23.250;2023-04-02T11:01:50;93884.84;;;19.86;44.06
15050;BME280;7622;42.724;23.250;2023-04-02T11:04:21;93898.84;;;19.68;43.55
15050;BME280;7622;42.724;23.250;2023-04-02T11:06:52;93897.22;;;19.67;43.50
15050;BME280;7622;42.724;23.250;2023-04-02T11:09:24;93891.72;;;19.44;43.09
15050;BME280;7622;42.724;23.250;2023-04-02T11:11:55;93900.09;;;20.02;42.40
15050;BME280;7622;42.724;23.250;2023-04-02T11:14:24;93847.19;;;19.42;42.13
15050;BME280;7622;42.724;23.250;2023-04-02T11:16:52;93896.03;;;19.13;43.08
15050;BME280;7622;42.724;23.250;2023-04-02T11:19:24;93902.13;;;19.63;42.15
15050;BME280;7622;42.724;23.250;2023-04-02T11:21:52;93893.84;;;19.78;42.88
15050;BME280;7622;42.724;23.250;2023-04-02T11:24:42;93900.47;;;19.69;42.29
15050;BME280;7622;42.724;23.250;2023-04-02T11:27:16;93895.63;;;20.02;42.32
15050;BME280;7622;42.724;23.250;2023-04-02T11:29:46;93893.38;;;20.24;42.70
15050;BME280;7622;42.724;23.250;2023-04-02T11:32:35;93895.41;;;20.59;41.77
15050;BME280;7622;42.724;23.250;2023-04-02T11:35:26;93887.78;;;20.14;41.30
15050;BME280;7622;42.724;23.250;2023-04-02T11:37:55;93832.56;;;19.46;42.56
15050;BME280;7622;42.724;23.250;2023-04-02T11:40:45;93890.75;;;19.38;43.27
15050;BME280;7622;42.724;23.250;2023-04-02T11:43:50;93879.59;;;18.93;44.12
15050;BME280;7622;42.724;23.250;2023-04-02T11:46:40;93872.53;;;19.37;42.73
15050;BME280;7622;42.724;23.250;2023-04-02T11:49:35;93873.13;;;18.89;43.72
15050;BME280;7622;42.724;23.250;2023-04-02T11:52:03;93867.53;;;18.79;43.61
15050;BME280;7622;42.724;23.250;2023-04-02T11:54:35;93872.91;;;18.66;43.24
15050;BME280;7622;42.724;23.250;2023-04-02T11:57:14;93871.91;;;18.92;42.50
15050;BME280;7622;42.724;23.250;2023-04-02T11:59:54;93873.47;;;18.99;42.54
15050;BME280;7622;42.724;23.250;2023-04-02T12:02:28;93883.16;;;19.05;43.30
15050;BME280;7622;42.724;23.250;2023-04-02T12:05:09;93881.91;;;18.38;44.24
15050;BME280;7622;42.724;23.250;2023-04-02T12:08:11;93879.53;;;18.30;43.34
15050;BME280;7622;42.724;23.250;2023-04-02T12:10:55;93878.47;;;17.87;43.96
15050;BME280;7622;42.724;23.250;2023-04-02T12:13:50;93876.91;;;17.59;44.36
15050;BME280;7622;42.724;23.250;2023-04-02T12:16:18;93872.88;;;17.77;43.71
15050;BME280;7622;42.724;23.250;2023-04-02T12:18:46;93876.53;;;17.49;44.62
15050;BME280;7622;42.724;23.250;2023-04-02T12:21:16;93875.31;;;17.45;45.12
15050;BME280;7622;42.724;23.250;2023-04-02T12:23:44;93873.66;;;17.84;44.92
15050;BME280;7622;42.724;23.250;2023-04-02T12:26:29;93869.28;;;18.16;44.56
15050;BME280;7622;42.724;23.250;2023-04-02T12:31:57;93880.94;;;17.82;44.05
15050;BME280;7622;42.724;23.250;2023-04-02T12:34:26;93871.19;;;17.95;43.99
15050;BME280;7622;42.724;23.250;2023-04-02T12:36:55;93868.78;;;17.87;44.10
15050;BME280;7622;42.724;23.250;2023-04-02T12:39:24;93860.78;;;17.36;44.19
15050;BME280;7622;42.724;23.250;2023-04-02T12:41:51;93861.59;;;17.30;44.66
15050;BME280;7622;42.724;23.250;2023-04-02T12:44:19;93850.66;;;17.53;44.88
15050;BME280;7622;42.724;23.250;2023-04-02T12:46:48;93844.88;;;18.02;44.52
15050;BME280;7622;42.724;23.250;2023-04-02T12:49:31;93853.00;;;17.94;44.51
15050;BME280;7622;42.724;23.250;2023-04-02T12:52:01;93847.06;;;18.05;43.52
15050;BME280;7622;42.724;23.250;2023-04-02T12:54:34;93850.97;;;17.96;43.46
15050;BME280;7622;42.724;23.250;2023-04-02T12:57:20;93847.78;;;17.81;43.44
15050;BME280;7622;42.724;23.250;2023-04-02T12:59:47;93824.78;;;17.69;44.19
15050;BME280;7622;42.724;23.250;2023-04-02T13:02:17;93820.78;;;17.47;44.22
15050;BME280;7622;42.724;23.250;2023-04-02T13:04:50;93825.22;;;17.53;43.90
15050;BME280;7622;42.724;23.250;2023-04-02T13:07:19;93846.22;;;17.53;43.72
15050;BME280;7622;42.724;23.250;2023-04-02T13:09:48;93845.81;;;17.43;43.65
15050;BME280;7622;42.724;23.250;2023-04-02T13:12:24;93847.84;;;17.48;43.87
15050;BME280;7622;42.724;23.250;2023-04-02T13:14:52;93835.94;;;17.39;44.14
15050;BME280;7622;42.724;23.250;2023-04-02T13:17:40;93838.19;;;17.22;44.24
15050;BME280;7622;42.724;23.250;2023-04-02T13:20:28;93841.84;;;17.14;44.32
15050;BME280;7622;42.724;23.250;2023-04-02T13:22:55;93840.81;;;17.09;44.23
15050;BME280;7622;42.724;23.250;2023-04-02T13:25:27;93839.41;;;17.13;43.38
15050;BME280;7622;42.724;23.250;2023-04-02T13:27:55;93843.84;;;17.19;42.78
15050;BME280;7622;42.724;23.250;2023-04-02T13:30:24;93836.72;;;17.52;41.96
15050;BME280;7622;42.724;23.250;2023-04-02T13:32:51;93836.97;;;17.31;42.13
15050;BME280;7622;42.724;23.250;2023-04-02T13:35:18;93826.63;;;17.56;41.83